sensor_id;sensor_type;location;lat;lon;timestamp;pressure;altitude;pressure_sealevel;temperature;humidity
34177;BME280;20450;49.074;9.158;2023-01-29T00:01:24;101023.22;;;1.54;67.76
34177;BME280;20450;49.074;9.158;2023-01-29T00:04:00;101025.03;;;1.53;68.39
34177;BME280;20450;49.074;9.158;2023-01-29T00:06:37;101020.81;;;1.51;68.25
34177;BME280;20450;49.074;9.158;2023-01-29T00:09:20;101025.88;;;1.54;68.21
34177;BME280;20450;49.074;9.158;2023-01-29T00:11:56;101024.81;;;1.45;67.56
34177;BME280;20450;49.074;9.158;2023-01-29T00:14:42;101021.91;;;1.37;68.15
34177;BME280;20450;49.074;9.158;2023-01-29T00:17:15;101019.03;;;1.29;68.08
34177;BME280;20450;49.074;9.158;2023-01-29T00:20:05;101024.38;;;1.29;68.63
34177;BME280;20450;49.074;9.158;2023-01-29T00:22:41;101028.22;;;1.36;68.71
34177;BME280;20450;49.074;9.158;2023-01-29T00:25:13;101026.66;;;1.34;68.46
34177;BME280;20450;49.074;9.158;2023-01-29T00:27:43;101022.91;;;1.36;68.39
34177;BME280;20450;49.074;9.158;2023-01-29T00:30:23;101031.75;;;1.37;68.66
34177;BME280;20450;49.074;9.158;2023-01-29T00:32:59;101032.31;;;1.40;68.82
34177;BME280;20450;49.074;9.158;2023-01-29T00:35:46;101020.47;;;1.33;68.78
34177;BME280;20450;49.074;9.158;2023-01-29T00:38:16;101030.16;;;1.34;68.95
34177;BME280;20450;49.074;9.158;2023-01-29T00:40:43;101030.50;;;1.30;68.91
34177;BME280;20450;49.074;9.158;2023-01-29T00:43:12;101027.97;;;1.28;68.76
34177;BME280;20450;49.074;9.158;2023-01-29T00:45:53;101031.38;;;1.30;69.26
34177;BME280;20450;49.074;9.158;2023-01-29T00:48:29;101028.94;;;1.16;69.70
34177;BME280;20450;49.074;9.158;2023-01-29T00:51:24;101023.63;;;1.16;70.09
34177;BME280;20450;49.074;9.158;2023-01-29T00:54:09;101030.06;;;1.14;69.82
34177;BME280;20450;49.074;9.158;2023-01-29T00:56:39;101031.28;;;1.10;70.43
34177;BME280;20450;49.074;9.158;2023-01-29T00:59:20;101026.78;;;1.10;70.81
34177;BME280;20450;49.074;9.158;2023-01-29T01:01:52;101018.78;;;1.10;70.75
34177;BME280;20450;49.074;9.158;2023-01-29T01:04:34;101021.56;;;1.09;70.61
34177;BME280;20450;49.074;9.158;2023-01-29T01:07:06;101024.00;;;1.12;70.71
34177;BME280;20450;49.074;9.158;2023-01-29T01:09:53;101012.28;;;1.03;71.02
34177;BME280;20450;49.074;9.158;2023-01-29T01:12:26;101009.50;;;1.05;70.78
34177;BME280;20450;49.074;9.158;2023-01-29T01:14:58;101018.44;;;1.04;71.11
34177;BME280;20450;49.074;9.158;2023-01-29T01:17:29;101019.03;;;1.07;70.75
34177;BME280;20450;49.074;9.158;2023-01-29T01:20:08;101016.50;;;1.06;70.13
34177;BME280;20450;49.074;9.158;2023-01-29T01:22:42;101023.41;;;1.08;70.12
34177;BME280;20450;49.074;9.158;2023-01-29T01:25:22;101027.00;;;1.07;70.67
34177;BME280;20450;49.074;9.158;2023-01-29T01:28:06;101020.75;;;1.08;70.22
34177;BME280;20450;49.074;9.158;2023-01-29T01:30:39;101025.94;;;1.10;70.12
34177;BME280;20450;49.074;9.158;2023-01-29T01:33:12;101022.44;;;1.09;70.40
34177;BME280;20450;49.074;9.158;2023-01-29T01:35:54;101012.16;;;1.05;70.13
34177;BME280;20450;49.074;9.158;2023-01-29T01:38:33;101018.44;;;1.04;70.38
34177;BME280;20450;49.074;9.158;2023-01-29T01:42:04;101022.06;;;1.03;70.89
34177;BME280;20450;49.074;9.158;2023-01-29T01:45:17;101016.50;;;0.95;71.01
34177;BME280;20450;49.074;9.158;2023-01-29T01:47:53;101014.69;;;0.95;71.37
34177;BME280;20450;49.074;9.158;2023-01-29T01:50:40;101006.84;;;0.83;71.95
34177;BME280;20450;49.074;9.158;2023-01-29T01:53:22;101010.34;;;0.83;71.88
34177;BME280;20450;49.074;9.158;2023-01-29T01:56:05;101006.72;;;0.84;71.92
34177;BME280;20450;49.074;9.158;2023-01-29T01:58:45;101016.13;;;0.88;71.42
34177;BME280;20450;49.074;9.158;2023-01-29T02:01:24;101024.13;;;0.88;71.29
34177;BME280;20450;49.074;9.158;2023-01-29T02:03:58;101011.78;;;0.87;71.17
34177;BME280;20450;49.074;9.158;2023-01-29T02:06:34;101025.22;;;0.86;71.55
34177;BME280;20450;49.074;9.158;2023-01-29T02:09:26;101012.66;;;0.88;72.14
34177;BME280;20450;49.074;9.158;2023-01-29T02:12:03;101014.09;;;0.92;71.24
34177;BME280;20450;49.074;9.158;2023-01-29T02:14:40;101022.66;;;0.95;71.16
34177;BME280;20450;49.074;9.158;2023-01-29T02:17:16;101021.09;;;0.93;70.92
34177;BME280;20450;49.074;9.158;2023-01-29T02:20:03;101018.69;;;0.90;70.99
34177;BME280;20450;49.074;9.158;2023-01-29T02:23:08;101019.66;;;0.89;70.99
34177;BME280;20450;49.074;9.158;2023-01-29T02:26:24;101021.94;;;0.93;71.14
34177;BME280;20450;49.074;9.158;2023-01-29T02:29:21;101016.38;;;0.96;70.91
34177;BME280;20450;49.074;9.158;2023-01-29T02:32:12;101020.84;;;0.96;71.31
34177;BME280;20450;49.074;9.158;2023-01-29T02:38:00;101011.06;;;0.96;71.02
34177;BME280;20450;49.074;9.158;2023-01-29T02:40:50;101013.00;;;0.94;71.18
34177;BME280;20450;49.074;9.158;2023-01-29T02:43:43;101019.03;;;0.85;70.89
34177;BME280;20450;49.074;9.158;2023-01-29T02:46:25;101013.59;;;0.87;71.26
34177;BME280;20450;49.074;9.158;2023-01-29T02:49:22;101014.69;;;0.84;71.00
34177;BME280;20450;49.074;9.158;2023-01-29T02:52:04;101016.72;;;0.81;71.02
34177;BME280;20450;49.074;9.158;2023-01-29T02:54:49;101013.47;;;0.77;71.29
34177;BME280;20450;49.074;9.158;2023-01-29T02:57:32;101015.41;;;0.75;71.47
34177;BME280;20450;49.074;9.158;2023-01-29T03:00:16;101012.13;;;0.72;71.81
34177;BME280;20450;49.074;9.158;2023-01-29T03:02:57;101015.75;;;0.71;71.64
34177;BME280;20450;49.074;9.158;2023-01-29T03:05:38;101005.25;;;0.69;71.77
34177;BME280;20450;49.074;9.158;2023-01-29T03:08:26;101012.88;;;0.74;71.58
34177;BME280;20450;49.074;9.158;2023-01-29T03:11:24;101013.47;;;0.77;71.14
34177;BME280;20450;49.074;9.158;2023-01-29T03:14:10;101013.38;;;0.79;70.89
34177;BME280;20450;49.074;9.158;2023-01-29T03:16:46;101012.38;;;0.80;70.57
34177;BME280;20450;49.074;9.158;2023-01-29T03:19:21;101015.28;;;0.77;70.75
34177;BME280;20450;49.074;9.158;2023-01-29T03:22:00;101012.38;;;0.80;70.50
34177;BME280;20450;49.074;9.158;2023-01-29T03:24:36;101010.47;;;0.82;70.38
34177;BME280;20450;49.074;9.158;2023-01-29T03:27:13;101011.41;;;0.81;70.68
34177;BME280;20450;49.074;9.158;2023-01-29T03:29:49;101002.50;;;0.82;70.31
34177;BME280;20450;49.074;9.158;2023-01-29T03:32:29;100996.56;;;0.78;70.63
34177;BME280;20450;49.074;9.158;2023-01-29T03:35:02;101003.78;;;0.76;70.70
34177;BME280;20450;49.074;9.158;2023-01-29T03:37:44;101015.03;;;0.80;70.67
34177;BME280;20450;49.074;9.158;2023-01-29T03:40:16;101013.38;;;0.79;70.80
34177;BME280;20450;49.074;9.158;2023-01-29T03:43:01;101016.03;;;0.79;70.60
34177;BME280;20450;49.074;9.158;2023-01-29T03:45:40;101011.06;;;0.74;70.99
34177;BME280;20450;49.074;9.158;2023-01-29T03:48:40;101008.63;;;0.71;70.92
34177;BME280;20450;49.074;9.158;2023-01-29T03:51:33;101007.03;;;0.69;71.56
34177;BME280;20450;49.074;9.158;2023-01-29T03:54:12;101008.63;;;0.71;71.50
34177;BME280;20450;49.074;9.158;2023-01-29T03:57:10;101012.97;;;0.72;71.29
34177;BME280;20450;49.074;9.158;2023-01-29T04:00:04;101016.84;;;0.68;71.26
34177;BME280;20450;49.074;9.158;2023-01-29T04:03:06;101023.97;;;0.68;71.13
34177;BME280;20450;49.074;9.158;2023-01-29T04:05:57;101019.88;;;0.64;71.45
34177;BME280;20450;49.074;9.158;2023-01-29T04:08:54;101030.50;;;0.64;71.77
34177;BME280;20450;49.074;9.158;2023-01-29T04:11:34;101029.41;;;0.66;71.57
34177;BME280;20450;49.074;9.158;2023-01-29T04:14:45;101028.56;;;0.66;72.10
34177;BME280;20450;49.074;9.158;2023-01-29T04:17:33;101031.91;;;0.57;71.72
34177;BME280;20450;49.074;9.158;2023-01-29T04:20:21;101030.75;;;0.61;72.37
34177;BME280;20450;49.074;9.158;2023-01-29T04:23:34;101025.66;;;0.69;72.06
34177;BME280;20450;49.074;9.158;2023-01-29T04:26:48;101020.34;;;0.69;71.99
34177;BME280;20450;49.074;9.158;2023-01-29T04:29:52;101025.41;;;0.72;72.81
34177;BME280;20450;49.074;9.158;2023-01-29T04:32:57;101023.63;;;0.72;72.69
34177;BME280;20450;49.074;9.158;2023-01-29T04:36:01;101030.28;;;0.67;72.66
34177;BME280;20450;49.074;9.158;2023-01-29T04:39:00;101023.00;;;0.69;72.18
34177;BME280;20450;49.074;9.158;2023-01-29T04:41:49;101023.00;;;0.69;71.42
34177;BME280;20450;49.074;9.158;2023-01-29T04:44:35;101037.03;;;0.71;71.62
34177;BME280;20450;49.074;9.158;2023-01-29T04:47:20;101036.06;;;0.72;71.65
34177;BME280;20450;49.074;9.158;2023-01-29T04:50:17;101035.13;;;0.73;71.78
34177;BME280;20450;49.074;9.158;2023-01-29T04:53:12;101035.94;;;0.73;71.19
34177;BME280;20450;49.074;9.158;2023-01-29T04:56:19;101039.34;;;0.75;71.29
34177;BME280;20450;49.074;9.158;2023-01-29T04:59:04;101020.84;;;0.74;70.92
34177;BME280;20450;49.074;9.158;2023-01-29T05:01:52;101019.75;;;0.76;71.48
34177;BME280;20450;49.074;9.158;2023-01-29T05:04:31;101022.28;;;0.78;70.98
34177;BME280;20450;49.074;9.158;2023-01-29T05:07:12;101027.97;;;0.73;70.61
34177;BME280;20450;49.074;9.158;2023-01-29T05:09:48;101033.16;;;0.75;70.97
34177;BME280;20450;49.074;9.158;2023-01-29T05:12:36;101035.00;;;0.74;71.03
34177;BME280;20450;49.074;9.158;2023-01-29T05:15:11;101037.88;;;0.71;71.04
34177;BME280;20450;49.074;9.158;2023-01-29T05:17:47;101039.47;;;0.74;71.10
34177;BME280;20450;49.074;9.158;2023-01-29T05:20:17;101042.50;;;0.80;71.03
34177;BME280;20450;49.074;9.158;2023-01-29T05:22:49;101038.00;;;0.81;70.94
34177;BME280;20450;49.074;9.158;2023-01-29T05:25:22;101025.56;;;0.81;70.99
34177;BME280;20450;49.074;9.158;2023-01-29T05:28:02;101021.09;;;0.82;70.98
34177;BME280;20450;49.074;9.158;2023-01-29T05:30:34;101017.59;;;0.81;71.21
34177;BME280;20450;49.074;9.158;2023-01-29T05:33:13;101000.66;;;0.82;70.64
34177;BME280;20450;49.074;9.158;2023-01-29T05:35:44;100996.94;;;0.85;70.30
34177;BME280;20450;49.074;9.158;2023-01-29T05:38:15;100982.88;;;0.72;71.04
34177;BME280;20450;49.074;9.158;2023-01-29T05:40:49;100973.94;;;0.62;71.53
34177;BME280;20450;49.074;9.158;2023-01-29T05:43:29;100987.84;;;0.65;70.68
34177;BME280;20450;49.074;9.158;2023-01-29T05:46:08;100990.28;;;0.68;70.78
34177;BME280;20450;49.074;9.158;2023-01-29T05:48:44;100995.47;;;0.70;70.80
34177;BME280;20450;49.074;9.158;2023-01-29T05:51:23;101003.31;;;0.71;70.64
34177;BME280;20450;49.074;9.158;2023-01-29T05:53:59;100997.16;;;0.71;70.75
34177;BME280;20450;49.074;9.158;2023-01-29T05:56:37;100998.94;;;0.70;70.95
34177;BME280;20450;49.074;9.158;2023-01-29T05:59:17;101005.47;;;0.66;70.97
34177;BME280;20450;49.074;9.158;2023-01-29T06:01:52;101012.38;;;0.69;71.35
34177;BME280;20450;49.074;9.158;2023-01-29T06:04:25;101006.69;;;0.73;71.25
34177;BME280;20450;49.074;9.158;2023-01-29T06:06:58;101013.84;;;0.73;71.26
34177;BME280;20450;49.074;9.158;2023-01-29T06:09:32;101003.31;;;0.71;71.51
34177;BME280;20450;49.074;9.158;2023-01-29T06:12:07;100999.56;;;0.74;71.27
34177;BME280;20450;49.074;9.158;2023-01-29T06:14:42;101004.03;;;0.73;71.03
34177;BME280;20450;49.074;9.158;2023-01-29T06:17:13;101003.91;;;0.75;70.87
34177;BME280;20450;49.074;9.158;2023-01-29T06:19:45;101009.47;;;0.72;70.79
34177;BME280;20450;49.074;9.158;2023-01-29T06:22:15;101003.31;;;0.71;71.41
34177;BME280;20450;49.074;9.158;2023-01-29T06:24:46;101009.34;;;0.73;71.56
34177;BME280;20450;49.074;9.158;2023-01-29T06:27:14;100999.81;;;0.71;71.38
34177;BME280;20450;49.074;9.158;2023-01-29T06:29:48;101003.31;;;0.71;71.15
34177;BME280;20450;49.074;9.158;2023-01-29T06:32:22;101007.91;;;0.69;71.42
34177;BME280;20450;49.074;9.158;2023-01-29T06:34:50;101003.69;;;0.67;71.09
34177;BME280;20450;49.074;9.158;2023-01-29T06:37:28;100994.00;;;0.66;71.03
34177;BME280;20450;49.074;9.158;2023-01-29T06:40:09;100999.44;;;0.64;71.44
34177;BME280;20450;49.074;9.158;2023-01-29T06:42:44;101007.53;;;0.63;71.66
34177;BME280;20450;49.074;9.158;2023-01-29T06:45:13;101006.22;;;0.68;71.13
34177;BME280;20450;49.074;9.158;2023-01-29T06:47:48;101016.47;;;0.62;71.23
34177;BME280;20450;49.074;9.158;2023-01-29T06:50:17;101012.13;;;0.61;71.42
34177;BME280;20450;49.074;9.158;2023-01-29T06:52:50;101012.25;;;0.59;71.90
34177;BME280;20450;49.074;9.158;2023-01-29T06:55:23;101008.00;;;0.57;72.00
34177;BME280;20450;49.074;9.158;2023-01-29T06:57:51;101004.00;;;0.51;71.96
34177;BME280;20450;49.074;9.158;2023-01-29T07:00:26;101010.06;;;0.53;71.86
34177;BME280;20450;49.074;9.158;2023-01-29T07:03:04;101016.09;;;0.55;71.80
34177;BME280;20450;49.074;9.158;2023-01-29T07:05:35;101021.91;;;0.60;71.75
34177;BME280;20450;49.074;9.158;2023-01-29T07:08:12;101023.72;;;0.60;71.74
34177;BME280;20450;49.074;9.158;2023-01-29T07:10:47;101029.03;;;0.60;72.32
34177;BME280;20450;49.074;9.158;2023-01-29T07:13:17;101034.09;;;0.63;72.48
34177;BME280;20450;49.074;9.158;2023-01-29T07:15:52;101035.72;;;0.65;72.30
34177;BME280;20450;49.074;9.158;2023-01-29T07:18:27;101031.72;;;0.71;72.46
34177;BME280;20450;49.074;9.158;2023-01-29T07:20:56;101032.22;;;0.76;73.14
34177;BME280;20450;49.074;9.158;2023-01-29T07:23:30;101029.56;;;0.76;72.50
34177;BME280;20450;49.074;9.158;2023-01-29T07:26:10;101032.22;;;0.76;70.92
34177;BME280;20450;49.074;9.158;2023-01-29T07:28:45;101034.03;;;0.75;71.38
34177;BME280;20450;49.074;9.158;2023-01-29T07:31:13;101033.16;;;0.75;71.24
34177;BME280;20450;49.074;9.158;2023-01-29T07:33:44;101040.31;;;0.74;71.66
34177;BME280;20450;49.074;9.158;2023-01-29T07:36:16;101032.69;;;0.81;71.25
34177;BME280;20450;49.074;9.158;2023-01-29T07:38:48;101037.91;;;0.93;74.56
34177;BME280;20450;49.074;9.158;2023-01-29T07:41:28;101035.72;;;0.87;70.59
34177;BME280;20450;49.074;9.158;2023-01-29T07:44:03;101025.03;;;0.54;71.44
34177;BME280;20450;49.074;9.158;2023-01-29T07:46:39;101035.56;;;0.56;72.08
34177;BME280;20450;49.074;9.158;2023-01-29T07:49:16;101044.63;;;0.64;71.77
34177;BME280;20450;49.074;9.158;2023-01-29T07:52:02;101055.53;;;0.72;71.23
34177;BME280;20450;49.074;9.158;2023-01-29T07:54:42;101061.13;;;0.80;70.69
34177;BME280;20450;49.074;9.158;2023-01-29T07:57:20;101069.09;;;0.91;71.64
34177;BME280;20450;49.074;9.158;2023-01-29T07:59:50;101071.03;;;1.00;71.52
34177;BME280;20450;49.074;9.158;2023-01-29T08:02:22;101061.38;;;0.99;71.33
34177;BME280;20450;49.074;9.158;2023-01-29T08:04:54;101073.47;;;1.03;72.15
34177;BME280;20450;49.074;9.158;2023-01-29T08:07:30;101062.34;;;1.09;71.75
34177;BME280;20450;49.074;9.158;2023-01-29T08:10:03;101063.66;;;1.15;72.85
34177;BME280;20450;49.074;9.158;2023-01-29T08:12:34;101070.22;;;1.22;71.59
34177;BME280;20450;49.074;9.158;2023-01-29T08:15:04;101070.09;;;1.23;71.57
34177;BME280;20450;49.074;9.158;2023-01-29T08:17:36;101072.16;;;1.31;71.17
34177;BME280;20450;49.074;9.158;2023-01-29T08:20:36;101075.91;;;1.39;70.89
34177;BME280;20450;49.074;9.158;2023-01-29T08:23:11;101071.44;;;1.40;70.63
34177;BME280;20450;49.074;9.158;2023-01-29T08:25:45;101072.75;;;1.45;70.97
34177;BME280;20450;49.074;9.158;2023-01-29T08:28:19;101071.75;;;1.46;70.33
34177;BME280;20450;49.074;9.158;2023-01-29T08:30:51;101075.38;;;1.56;69.69
34177;BME280;20450;49.074;9.158;2023-01-29T08:33:24;101078.03;;;1.67;69.91
34177;BME280;20450;49.074;9.158;2023-01-29T08:36:10;101070.03;;;1.78;68.79
34177;BME280;20450;49.074;9.158;2023-01-29T08:38:48;101067.81;;;1.94;68.68
34177;BME280;20450;49.074;9.158;2023-01-29T08:41:26;101059.56;;;2.29;67.25
34177;BME280;20450;49.074;9.158;2023-01-29T08:44:00;101059.34;;;2.53;66.74
34177;BME280;20450;49.074;9.158;2023-01-29T08:46:32;101057.53;;;2.74;66.21
34177;BME280;20450;49.074;9.158;2023-01-29T08:49:03;101067.06;;;2.97;64.51
34177;BME280;20450;49.074;9.158;2023-01-29T08:51:39;101066.31;;;3.15;63.62
34177;BME280;20450;49.074;9.158;2023-01-29T08:54:10;101069.47;;;3.30;62.80
34177;BME280;20450;49.074;9.158;2023-01-29T08:56:39;101071.69;;;3.25;62.08
34177;BME280;20450;49.074;9.158;2023-01-29T08:59:10;101075.50;;;2.81;63.60
34177;BME280;20450;49.074;9.158;2023-01-29T09:01:52;101075.81;;;3.08;63.45
34177;BME280;20450;49.074;9.158;2023-01-29T09:04:22;101074.81;;;3.60;62.11
34177;BME280;20450;49.074;9.158;2023-01-29T09:06:51;101074.44;;;3.83;60.89
34177;BME280;20450;49.074;9.158;2023-01-29T09:09:26;101075.22;;;3.65;60.74
34177;BME280;20450;49.074;9.158;2023-01-29T09:12:01;101082.06;;;3.88;60.03
34177;BME280;20450;49.074;9.158;2023-01-29T09:14:35;101079.84;;;4.50;58.14
34177;BME280;20450;49.074;9.158;2023-01-29T09:17:13;101089.53;;;4.89;56.00
34177;BME280;20450;49.074;9.158;2023-01-29T09:19:49;101086.19;;;4.59;57.27
34177;BME280;20450;49.074;9.158;2023-01-29T09:22:24;101093.56;;;5.22;55.12
34177;BME280;20450;49.074;9.158;2023-01-29T09:25:01;101081.63;;;6.42;52.38
34177;BME280;20450;49.074;9.158;2023-01-29T09:27:32;101060.69;;;7.73;47.61
34177;BME280;20450;49.074;9.158;2023-01-29T09:30:09;101065.34;;;7.30;46.76
34177;BME280;20450;49.074;9.158;2023-01-29T09:32:44;101057.53;;;7.11;47.91
34177;BME280;20450;49.074;9.158;2023-01-29T09:35:21;101042.25;;;7.94;46.79
34177;BME280;20450;49.074;9.158;2023-01-29T09:37:58;101033.97;;;8.38;45.34
34177;BME280;20450;49.074;9.158;2023-01-29T09:40:37;101030.34;;;9.72;42.37
34177;BME280;20450;49.074;9.158;2023-01-29T09:43:17;101025.31;;;9.99;40.41
34177;BME280;20450;49.074;9.158;2023-01-29T09:46:18;101025.06;;;10.62;40.90
34177;BME280;20450;49.074;9.158;2023-01-29T09:49:10;101017.00;;;9.78;40.77
34177;BME280;20450;49.074;9.158;2023-01-29T09:51:57;101003.47;;;10.17;40.74
34177;BME280;20450;49.074;9.158;2023-01-29T09:54:47;101009.81;;;10.24;39.47
34177;BME280;20450;49.074;9.158;2023-01-29T09:57:38;101017.81;;;10.18;39.93
34177;BME280;20450;49.074;9.158;2023-01-29T10:00:39;101017.75;;;10.26;39.59
34177;BME280;20450;49.074;9.158;2023-01-29T10:03:44;101028.84;;;8.19;42.49
34177;BME280;20450;49.074;9.158;2023-01-29T10:06:38;101032.34;;;6.26;48.90
34177;BME280;20450;49.074;9.158;2023-01-29T10:09:52;101023.22;;;6.36;48.10
34177;BME280;20450;49.074;9.158;2023-01-29T10:12:58;101007.88;;;5.93;49.12
34177;BME280;20450;49.074;9.158;2023-01-29T10:15:56;101005.25;;;6.19;49.53
34177;BME280;20450;49.074;9.158;2023-01-29T10:18:44;101015.66;;;5.60;50.59
34177;BME280;20450;49.074;9.158;2023-01-29T10:21:47;101022.22;;;5.75;51.04
34177;BME280;20450;49.074;9.158;2023-01-29T10:24:37;101039.63;;;5.34;51.99
34177;BME280;20450;49.074;9.158;2023-01-29T10:27:30;101030.72;;;5.97;51.01
34177;BME280;20450;49.074;9.158;2023-01-29T10:30:27;101031.09;;;6.38;49.79
34177;BME280;20450;49.074;9.158;2023-01-29T10:33:15;101040.78;;;5.32;52.32
34177;BME280;20450;49.074;9.158;2023-01-29T10:36:15;101043.91;;;4.72;53.71
34177;BME280;20450;49.074;9.158;2023-01-29T10:39:04;101038.63;;;4.99;53.87
34177;BME280;20450;49.074;9.158;2023-01-29T10:42:04;101033.47;;;4.69;54.81
34177;BME280;20450;49.074;9.158;2023-01-29T10:45:25;101031.66;;;4.79;54.40
34177;BME280;20450;49.074;9.158;2023-01-29T10:48:38;101026.25;;;4.98;53.94
34177;BME280;20450;49.074;9.158;2023-01-29T10:51:32;101028.50;;;4.93;53.05
34177;BME280;20450;49.074;9.158;2023-01-29T10:54:47;101033.84;;;5.02;52.57
34177;BME280;20450;49.074;9.158;2023-01-29T10:57:48;101033.28;;;4.99;52.35
34177;BME280;20450;49.074;9.158;2023-01-29T11:00:33;101028.84;;;4.80;52.92
34177;BME280;20450;49.074;9.158;2023-01-29T11:03:14;101026.50;;;4.20;55.40
34177;BME280;20450;49.074;9.158;2023-01-29T11:06:00;101017.03;;;4.64;54.28
34177;BME280;20450;49.074;9.158;2023-01-29T11:08:41;101005.19;;;4.76;53.75
34177;BME280;20450;49.074;9.158;2023-01-29T11:11:17;100999.25;;;4.82;53.87
34177;BME280;20450;49.074;9.158;2023-01-29T11:13:52;100992.09;;;4.73;53.33
34177;BME280;20450;49.074;9.158;2023-01-29T11:16:28;100990.03;;;4.38;54.94
34177;BME280;20450;49.074;9.158;2023-01-29T11:19:51;100985.06;;;4.62;54.57
34177;BME280;20450;49.074;9.158;2023-01-29T11:22:28;100974.06;;;4.65;55.09
34177;BME280;20450;49.074;9.158;2023-01-29T11:25:08;100980.09;;;4.77;55.16
34177;BME280;20450;49.074;9.158;2023-01-29T11:27:57;100972.06;;;4.77;54.41
34177;BME280;20450;49.074;9.158;2023-01-29T11:30:34;100974.66;;;4.59;54.94
34177;BME280;20450;49.074;9.158;2023-01-29T11:33:32;100974.66;;;4.50;55.03
34177;BME280;20450;49.074;9.158;2023-01-29T11:36:20;100968.44;;;4.59;55.21
34177;BME280;20450;49.074;9.158;2023-01-29T11:39:25;100962.84;;;5.25;53.53
34177;BME280;20450;49.074;9.158;2023-01-29T11:41:56;100956.94;;;5.49;52.26
34177;BME280;20450;49.074;9.158;2023-01-29T11:44:29;100946.72;;;6.32;50.20
34177;BME280;20450;49.074;9.158;2023-01-29T11:47:11;100945.41;;;6.87;49.64
34177;BME280;20450;49.074;9.158;2023-01-29T11:49:47;100939.84;;;7.22;47.50
34177;BME280;20450;49.074;9.158;2023-01-29T11:52:18;100935.63;;;7.77;45.82
34177;BME280;20450;49.074;9.158;2023-01-29T11:54:50;100930.63;;;7.82;44.89
34177;BME280;20450;49.074;9.158;2023-01-29T11:57:25;100932.03;;;7.45;45.73
34177;BME280;20450;49.074;9.158;2023-01-29T11:59:58;100933.81;;;7.94;45.05
34177;BME280;20450;49.074;9.158;2023-01-29T12:02:36;100916.91;;;8.88;43.14
34177;BME280;20450;49.074;9.158;2023-01-29T12:05:15;100915.09;;;9.58;41.55
34177;BME280;20450;49.074;9.158;2023-01-29T12:07:45;100919.72;;;8.40;43.59
34177;BME280;20450;49.074;9.158;2023-01-29T12:10:30;100911.44;;;8.50;43.46
34177;BME280;20450;49.074;9.158;2023-01-29T12:13:06;100907.13;;;6.60;45.45
34177;BME280;20450;49.074;9.158;2023-01-29T12:16:06;100905.19;;;5.66;50.39
34177;BME280;20450;49.074;9.158;2023-01-29T12:18:47;100902.38;;;6.54;67.33
34177;BME280;20450;49.074;9.158;2023-01-29T12:21:29;100897.63;;;7.07;57.30
34177;BME280;20450;49.074;9.158;2023-01-29T12:24:02;100875.31;;;6.73;49.10
34177;BME280;20450;49.074;9.158;2023-01-29T12:26:41;100870.78;;;5.26;51.33
34177;BME280;20450;49.074;9.158;2023-01-29T12:29:30;100873.13;;;4.02;56.10
34177;BME280;20450;49.074;9.158;2023-01-29T12:32:11;100863.50;;;4.65;55.07
34177;BME280;20450;49.074;9.158;2023-01-29T12:34:55;100863.34;;;4.66;53.89
34177;BME280;20450;49.074;9.158;2023-01-29T12:37:37;100850.81;;;3.74;56.12
34177;BME280;20450;49.074;9.158;2023-01-29T12:40:13;100849.69;;;3.48;58.34
34177;BME280;20450;49.074;9.158;2023-01-29T12:42:47;100840.94;;;3.75;58.70
34177;BME280;20450;49.074;9.158;2023-01-29T12:45:18;100841.97;;;4.30;56.69
34177;BME280;20450;49.074;9.158;2023-01-29T12:47:51;100829.13;;;4.70;55.46
34177;BME280;20450;49.074;9.158;2023-01-29T12:50:25;100825.63;;;4.87;55.26
34177;BME280;20450;49.074;9.158;2023-01-29T12:52:58;100824.09;;;4.84;54.20
34177;BME280;20450;49.074;9.158;2023-01-29T12:55:32;100821.78;;;4.72;55.95
34177;BME280;20450;49.074;9.158;2023-01-29T12:58:09;100815.44;;;5.00;55.01
34177;BME280;20450;49.074;9.158;2023-01-29T13:00:44;100823.53;;;5.25;54.09
34177;BME280;20450;49.074;9.158;2023-01-29T13:03:19;100813.38;;;5.46;53.38
34177;BME280;20450;49.074;9.158;2023-01-29T13:05:52;100815.69;;;5.41;53.44
34177;BME280;20450;49.074;9.158;2023-01-29T13:08:26;100810.53;;;5.48;53.50
34177;BME280;20450;49.074;9.158;2023-01-29T13:11:01;100813.75;;;5.51;53.33
34177;BME280;20450;49.074;9.158;2023-01-29T13:13:37;100816.19;;;5.45;54.00
34177;BME280;20450;49.074;9.158;2023-01-29T13:16:12;100814.53;;;5.44;53.56
34177;BME280;20450;49.074;9.158;2023-01-29T13:18:43;100818.50;;;5.22;53.82
34177;BME280;20450;49.074;9.158;2023-01-29T13:21:17;100817.22;;;5.26;53.99
34177;BME280;20450;49.074;9.158;2023-01-29T13:23:50;100817.66;;;5.39;53.73
34177;BME280;20450;49.074;9.158;2023-01-29T13:26:22;100817.28;;;5.52;54.45
34177;BME280;20450;49.074;9.158;2023-01-29T13:28:50;100816.44;;;5.51;54.04
34177;BME280;20450;49.074;9.158;2023-01-29T13:31:28;100814.53;;;5.44;53.85
34177;BME280;20450;49.074;9.158;2023-01-29T13:34:07;100811.00;;;5.43;53.34
34177;BME280;20450;49.074;9.158;2023-01-29T13:36:42;100810.22;;;5.51;53.75
34177;BME280;20450;49.074;9.158;2023-01-29T13:39:21;100806.78;;;5.41;53.38
34177;BME280;20450;49.074;9.158;2023-01-29T13:41:52;100806.34;;;5.45;53.91
34177;BME280;20450;49.074;9.158;2023-01-29T13:44:23;100802.91;;;5.35;54.28
34177;BME280;20450;49.074;9.158;2023-01-29T13:46:56;100807.72;;;5.32;54.58
34177;BME280;20450;49.074;9.158;2023-01-29T13:49:29;100809.53;;;5.31;54.20
34177;BME280;20450;49.074;9.158;2023-01-29T13:52:15;100803.88;;;5.34;54.52
34177;BME280;20450;49.074;9.158;2023-01-29T13:54:54;100794.56;;;5.38;54.51
34177;BME280;20450;49.074;9.158;2023-01-29T13:57:36;100795.31;;;5.48;54.12
34177;BME280;20450;49.074;9.158;2023-01-29T14:03:52;100795.69;;;5.18;54.14
34177;BME280;20450;49.074;9.158;2023-01-29T14:06:49;100791.09;;;4.93;56.29
34177;BME280;20450;49.074;9.158;2023-01-29T14:12:45;100773.69;;;4.80;56.25
34177;BME280;20450;49.074;9.158;2023-01-29T14:15:19;100773.72;;;4.53;56.34
34177;BME280;20450;49.074;9.158;2023-01-29T14:17:59;100765.59;;;4.45;57.10
34177;BME280;20450;49.074;9.158;2023-01-29T14:20:58;100758.78;;;4.23;57.77
34177;BME280;20450;49.074;9.158;2023-01-29T14:23:32;100756.91;;;4.33;57.84